createdAt,value
2017-03-29T03:00:34.737Z,20.93
2017-03-29T03:01:00.302Z,21.04
2017-03-29T03:01:25.862Z,20.96
2017-03-29T03:01:51.422Z,21.09
2017-03-29T03:02:16.997Z,21.05
2017-03-29T03:02:42.630Z,21.08
2017-03-29T03:03:08.189Z,21.02
2017-03-29T03:03:33.841Z,21.06
2017-03-29T03:03:59.521Z,21.04
2017-03-29T03:04:25.061Z,21.09
2017-03-29T03:04:50.660Z,21.11
2017-03-29T03:05:16.205Z,20.95
2017-03-29T03:05:41.765Z,21.09
2017-03-29T03:06:07.430Z,21.04
2017-03-29T03:06:32.929Z,21.08
2017-03-29T03:06:58.610Z,20.98
2017-03-29T03:07:24.183Z,20.99
2017-03-29T03:07:49.830Z,21.01
2017-03-29T03:08:15.550Z,21.06
2017-03-29T03:08:41.100Z,21.09
2017-03-29T03:09:06.729Z,21.04
2017-03-29T03:09:32.304Z,20.96
2017-03-29T03:09:57.997Z,20.98
2017-03-29T03:10:23.573Z,21.04
2017-03-29T03:10:49.141Z,21.02
2017-03-29T03:11:14.812Z,21.06
2017-03-29T03:11:40.363Z,21.01
2017-03-29T03:12:05.912Z,20.9
2017-03-29T03:12:31.468Z,21.01
2017-03-29T03:12:57.029Z,21.05
2017-03-29T03:13:22.585Z,21.01
2017-03-29T03:13:48.150Z,21.02
2017-03-29T03:14:13.710Z,20.99
2017-03-29T03:14:39.258Z,21.04
2017-03-29T03:15:04.931Z,20.99
2017-03-29T03:15:30.502Z,21.06
2017-03-29T03:15:56.060Z,21.02
2017-03-29T03:16:21.628Z,21.05
2017-03-29T03:16:47.303Z,20.99
2017-03-29T03:17:12.839Z,21.01
2017-03-29T03:17:38.390Z,21.01
2017-03-29T03:18:03.948Z,20.99
2017-03-29T03:18:29.502Z,21.05
2017-03-29T03:18:55.035Z,20.91
2017-03-29T03:19:20.578Z,20.89
2017-03-29T03:19:46.149Z,21.01
2017-03-29T03:20:11.720Z,21.04
2017-03-29T03:20:37.272Z,20.98
2017-03-29T03:21:02.837Z,21.02
2017-03-29T03:21:28.413Z,20.93
2017-03-29T03:21:53.970Z,21.05
2017-03-29T03:22:19.553Z,20.98
2017-03-29T03:22:45.110Z,21.04
2017-03-29T03:23:10.688Z,21.08
2017-03-29T03:23:36.222Z,21.06
2017-03-29T03:24:01.792Z,20.99
2017-03-29T03:24:27.351Z,21.04
2017-03-29T03:24:53.026Z,21.01
2017-03-29T03:25:18.600Z,21.02
2017-03-29T03:25:44.159Z,20.98
2017-03-29T03:26:09.741Z,21.04
2017-03-29T03:26:35.321Z,20.99
2017-03-29T03:27:00.871Z,21.04
2017-03-29T03:27:26.428Z,20.98
2017-03-29T03:27:52.000Z,21.04
2017-03-29T03:28:17.561Z,21.04
2017-03-29T03:28:43.130Z,20.96
2017-03-29T03:29:08.664Z,21.05
2017-03-29T03:29:34.238Z,20.93
2017-03-29T03:29:59.797Z,20.99
2017-03-29T03:30:25.338Z,21.02
2017-03-29T03:30:50.888Z,21.01
2017-03-29T03:31:16.540Z,21.06
2017-03-29T03:31:42.109Z,21.05
2017-03-29T03:32:07.681Z,20.99
2017-03-29T03:32:33.243Z,21.02
2017-03-29T03:32:58.814Z,20.99
2017-03-29T03:33:24.381Z,20.98
2017-03-29T03:33:49.939Z,20.91
2017-03-29T03:34:15.498Z,21.02
2017-03-29T03:34:41.085Z,21.02
2017-03-29T03:35:06.638Z,21.05
2017-03-29T03:35:32.201Z,21.08
2017-03-29T03:35:57.886Z,20.98
2017-03-29T03:36:23.449Z,20.99
2017-03-29T03:36:49.004Z,21.01
2017-03-29T03:37:14.560Z,21.01
2017-03-29T03:37:40.198Z,21.04
2017-03-29T03:38:05.758Z,21.05
2017-03-29T03:38:31.317Z,20.99
2017-03-29T03:38:56.857Z,20.89
2017-03-29T03:39:22.416Z,20.99
2017-03-29T03:39:47.952Z,20.99
2017-03-29T03:40:13.490Z,20.9
2017-03-29T03:40:39.044Z,20.89
2017-03-29T03:41:04.582Z,20.91
2017-03-29T03:41:30.130Z,20.89
2017-03-29T03:41:55.673Z,21.01
2017-03-29T03:42:21.208Z,21.01
2017-03-29T03:42:46.761Z,20.99
2017-03-29T03:43:12.327Z,20.95
2017-03-29T03:43:37.882Z,21.04
2017-03-29T03:44:03.449Z,21.05
2017-03-29T03:44:29.006Z,20.98
2017-03-29T03:44:54.549Z,21.02
2017-03-29T03:45:20.191Z,20.89
2017-03-29T03:45:45.752Z,21.04
2017-03-29T03:46:11.303Z,20.93
2017-03-29T03:46:36.969Z,21.01
2017-03-29T03:47:02.536Z,20.99
2017-03-29T03:47:28.082Z,20.9
2017-03-29T03:47:53.680Z,20.99
2017-03-29T03:48:19.359Z,20.99
2017-03-29T03:48:44.913Z,20.99
2017-03-29T03:49:10.458Z,20.89
2017-03-29T03:50:19.172Z,20.98
2017-03-29T03:50:44.736Z,21.01
2017-03-29T03:51:10.309Z,21.06
2017-03-29T03:51:35.877Z,20.99
2017-03-29T03:52:01.447Z,21.04
2017-03-29T03:52:27.138Z,20.89
2017-03-29T03:52:52.884Z,20.89
2017-03-29T03:53:18.480Z,21.01
2017-03-29T03:53:44.036Z,20.91
2017-03-29T03:54:09.650Z,20.9
2017-03-29T03:54:35.228Z,20.93
2017-03-29T03:55:00.783Z,20.89
2017-03-29T03:55:26.341Z,20.91
2017-03-29T03:55:51.915Z,20.93
2017-03-29T03:56:17.481Z,20.93
2017-03-29T03:56:43.051Z,21.01
2017-03-29T03:57:08.606Z,20.87
2017-03-29T03:57:34.162Z,21.02
2017-03-29T03:57:59.726Z,20.89
2017-03-29T03:58:25.302Z,20.99
2017-03-29T03:58:50.855Z,20.9
2017-03-29T03:59:16.443Z,20.98
2017-03-29T03:59:42.002Z,20.98
2017-03-29T04:00:07.578Z,20.9
2017-03-29T04:00:33.130Z,20.84
2017-03-29T04:00:58.723Z,20.9
2017-03-29T04:01:24.280Z,20.93
2017-03-29T04:01:49.829Z,20.93
2017-03-29T04:02:15.518Z,21.04
2017-03-29T04:02:41.109Z,20.91
2017-03-29T04:03:06.681Z,20.9
2017-03-29T04:03:32.318Z,20.98
2017-03-29T04:03:57.885Z,21.02
2017-03-29T04:04:23.506Z,21.04
2017-03-29T04:04:49.081Z,20.89
2017-03-29T04:05:14.721Z,20.99
2017-03-29T04:05:40.318Z,20.98
2017-03-29T04:06:05.896Z,20.9
2017-03-29T04:06:31.451Z,20.99
2017-03-29T04:06:57.144Z,20.89
2017-03-29T04:07:22.708Z,21.01
2017-03-29T04:07:48.281Z,21.04
2017-03-29T04:08:13.830Z,21.04
2017-03-29T04:08:39.404Z,21.04
2017-03-29T04:09:04.968Z,20.99
2017-03-29T04:09:30.520Z,20.98
2017-03-29T04:09:56.073Z,20.9
2017-03-29T04:10:21.660Z,21.01
2017-03-29T04:10:47.270Z,20.96
2017-03-29T04:11:12.838Z,20.86
2017-03-29T04:11:38.409Z,21.04
2017-03-29T04:12:03.979Z,20.89
2017-03-29T04:12:29.550Z,20.9
2017-03-29T04:12:55.120Z,20.95
2017-03-29T04:13:20.675Z,21.02
2017-03-29T04:13:46.238Z,20.98
2017-03-29T04:14:11.790Z,20.95
2017-03-29T04:14:37.350Z,20.89
2017-03-29T04:15:02.916Z,20.91
2017-03-29T04:15:28.492Z,20.91
2017-03-29T04:15:54.048Z,20.9
2017-03-29T04:16:19.631Z,20.9
2017-03-29T04:16:45.179Z,20.86
2017-03-29T04:17:10.749Z,20.89
2017-03-29T04:17:36.331Z,20.93
2017-03-29T04:18:01.886Z,20.93
2017-03-29T04:18:27.460Z,20.87
2017-03-29T04:18:53.042Z,20.95
2017-03-29T04:19:18.596Z,20.83
2017-03-29T04:19:44.150Z,20.89
2017-03-29T04:20:09.755Z,20.95
2017-03-29T04:20:35.390Z,20.99
2017-03-29T04:21:00.971Z,20.89
2017-03-29T04:21:26.519Z,20.95
2017-03-29T04:21:52.101Z,20.89
2017-03-29T04:22:17.668Z,20.84
2017-03-29T04:22:43.222Z,20.96
2017-03-29T04:23:08.786Z,20.91
2017-03-29T04:23:34.340Z,20.93
2017-03-29T04:23:59.970Z,20.89
2017-03-29T04:24:25.594Z,20.93
2017-03-29T04:24:51.190Z,20.99
2017-03-29T04:25:16.731Z,20.93
2017-03-29T04:25:42.291Z,20.91
2017-03-29T04:26:07.863Z,20.93
2017-03-29T04:26:33.435Z,20.91
2017-03-29T04:26:59.011Z,20.93
2017-03-29T04:27:24.565Z,20.93
2017-03-29T04:27:50.141Z,20.89
2017-03-29T04:28:15.733Z,20.9
2017-03-29T04:28:41.298Z,20.87
2017-03-29T04:29:06.865Z,20.93
2017-03-29T04:29:32.441Z,20.9
2017-03-29T04:29:58.005Z,20.93
2017-03-29T04:30:23.570Z,20.9
2017-03-29T04:30:49.139Z,20.95
2017-03-29T04:31:14.701Z,20.93
2017-03-29T04:31:40.260Z,20.9
2017-03-29T04:32:05.910Z,20.86
2017-03-29T04:32:31.485Z,20.91
2017-03-29T04:32:57.039Z,20.87
2017-03-29T04:33:22.623Z,20.86
2017-03-29T04:33:48.271Z,20.93
2017-03-29T04:34:13.836Z,20.9
2017-03-29T04:34:39.401Z,20.91
2017-03-29T04:35:04.975Z,21.01
2017-03-29T04:35:30.543Z,20.9
2017-03-29T04:35:56.106Z,20.9
2017-03-29T04:36:21.665Z,20.95
2017-03-29T04:36:47.205Z,20.95
2017-03-29T04:37:12.789Z,20.93
2017-03-29T04:37:38.347Z,20.91
2017-03-29T04:38:04.050Z,20.95
2017-03-29T04:38:29.617Z,20.91
2017-03-29T04:38:55.180Z,20.91
2017-03-29T04:39:20.739Z,20.93
2017-03-29T04:39:46.303Z,20.9
2017-03-29T04:40:11.866Z,20.89
2017-03-29T04:40:37.468Z,20.89
2017-03-29T04:41:03.036Z,20.9
2017-03-29T04:41:28.682Z,20.9
2017-03-29T04:41:54.287Z,20.93
2017-03-29T04:42:19.857Z,20.93
2017-03-29T04:42:45.436Z,20.89
2017-03-29T04:43:11.062Z,20.87
2017-03-29T04:43:36.603Z,20.89
2017-03-29T04:44:02.183Z,20.93
2017-03-29T04:44:27.813Z,20.86
2017-03-29T04:44:53.401Z,20.89
2017-03-29T04:45:18.983Z,20.86
2017-03-29T04:45:44.563Z,20.93
2017-03-29T04:46:10.168Z,21.06
2017-03-29T04:46:35.730Z,20.89
2017-03-29T04:47:01.288Z,20.95
2017-03-29T04:47:26.863Z,20.98
2017-03-29T04:47:52.439Z,20.89
2017-03-29T04:48:18.040Z,20.99
2017-03-29T04:48:43.598Z,20.89
2017-03-29T04:49:09.160Z,20.91
2017-03-29T04:49:34.750Z,20.99
2017-03-29T04:50:00.433Z,21.04
2017-03-29T04:50:25.988Z,21.02
2017-03-29T04:50:51.542Z,20.93
2017-03-29T04:51:17.129Z,21.01
2017-03-29T04:51:42.700Z,20.98
2017-03-29T04:52:08.285Z,21.04
2017-03-29T04:52:33.866Z,21.02
2017-03-29T04:52:59.430Z,20.99
2017-03-29T04:53:25.017Z,21.04
2017-03-29T04:53:50.584Z,20.96
2017-03-29T04:54:16.158Z,21.01
2017-03-29T04:54:41.758Z,21.01
2017-03-29T04:55:07.311Z,20.99
2017-03-29T04:55:32.879Z,20.98
2017-03-29T04:55:58.473Z,21.01
2017-03-29T04:56:24.041Z,20.96
2017-03-29T04:56:49.610Z,20.98
2017-03-29T04:57:15.173Z,21.01
2017-03-29T04:57:40.736Z,20.99
2017-03-29T04:58:06.329Z,20.87
2017-03-29T04:58:31.915Z,20.9
2017-03-29T04:58:57.482Z,20.91
2017-03-29T04:59:23.072Z,20.95
2017-03-29T04:59:48.624Z,20.95
2017-03-29T05:00:14.186Z,20.9
2017-03-29T05:00:39.753Z,20.91
2017-03-29T05:01:05.347Z,20.91
2017-03-29T05:01:30.914Z,20.91
2017-03-29T05:01:56.489Z,20.9
2017-03-29T05:02:22.067Z,20.95
2017-03-29T05:02:47.636Z,20.9
2017-03-29T05:03:13.202Z,20.87
2017-03-29T05:03:38.770Z,20.93
2017-03-29T05:04:04.326Z,20.93
2017-03-29T05:04:29.905Z,20.89
2017-03-29T05:04:55.481Z,20.91
2017-03-29T05:05:21.041Z,20.95
2017-03-29T05:05:46.599Z,20.89
2017-03-29T05:06:12.199Z,20.86
2017-03-29T05:06:37.769Z,20.84
2017-03-29T05:07:03.339Z,20.9
2017-03-29T05:07:28.896Z,20.89
2017-03-29T05:07:54.502Z,20.89
2017-03-29T05:08:20.051Z,20.91
2017-03-29T05:08:45.605Z,20.87
2017-03-29T05:09:11.167Z,20.9
2017-03-29T05:09:36.739Z,20.91
2017-03-29T05:10:02.307Z,20.89
2017-03-29T05:10:27.880Z,20.93
2017-03-29T05:10:53.500Z,20.83
2017-03-29T05:11:19.071Z,20.9
2017-03-29T05:11:44.623Z,20.9
2017-03-29T05:12:53.497Z,20.93
2017-03-29T05:13:19.047Z,20.84
2017-03-29T05:13:44.654Z,20.89
2017-03-29T05:14:10.230Z,20.84
2017-03-29T05:14:35.782Z,20.9
2017-03-29T05:15:01.341Z,20.77
2017-03-29T05:15:26.894Z,20.9
2017-03-29T05:15:52.456Z,20.87
2017-03-29T05:16:18.000Z,20.8
2017-03-29T05:16:43.549Z,20.95
2017-03-29T05:17:09.112Z,20.91
2017-03-29T05:17:34.821Z,20.98
2017-03-29T05:18:00.381Z,20.91
2017-03-29T05:18:25.944Z,20.93
2017-03-29T05:18:51.496Z,20.96
2017-03-29T05:19:17.183Z,20.91
2017-03-29T05:19:42.750Z,20.9
2017-03-29T05:20:08.311Z,20.9
2017-03-29T05:20:33.896Z,20.93
2017-03-29T05:20:59.538Z,20.9
2017-03-29T05:21:25.078Z,20.87
2017-03-29T05:21:50.639Z,20.89
2017-03-29T05:22:16.223Z,20.87
2017-03-29T05:22:41.765Z,20.89
2017-03-29T05:23:07.357Z,20.89
2017-03-29T05:23:32.921Z,20.91
2017-03-29T05:23:58.482Z,20.87
2017-03-29T05:24:24.054Z,20.93
2017-03-29T05:24:50.496Z,20.95
2017-03-29T05:25:16.149Z,20.9
2017-03-29T05:25:43.853Z,20.9
2017-03-29T05:26:09.150Z,20.95
2017-03-29T05:26:35.239Z,20.89
2017-03-29T05:27:00.619Z,20.84
2017-03-29T05:27:26.171Z,20.89
2017-03-29T05:27:51.723Z,20.89
2017-03-29T05:28:17.279Z,20.91
2017-03-29T05:28:42.842Z,21.04
2017-03-29T05:29:08.404Z,20.93
2017-03-29T05:29:33.967Z,20.91
2017-03-29T05:29:59.542Z,20.89
2017-03-29T05:30:25.120Z,21.04
2017-03-29T05:31:23.539Z,20.99
2017-03-29T05:31:49.215Z,20.9
2017-03-29T05:32:14.817Z,20.86
2017-03-29T05:32:40.364Z,20.93
2017-03-29T05:33:05.913Z,21.02
2017-03-29T05:33:31.629Z,20.91
2017-03-29T05:33:57.186Z,20.89
2017-03-29T05:34:22.789Z,20.81
2017-03-29T05:34:48.360Z,20.98
2017-03-29T05:35:13.937Z,20.89
2017-03-29T05:35:39.618Z,20.91
2017-03-29T05:36:05.206Z,20.91
2017-03-29T05:36:30.790Z,20.93
2017-03-29T05:36:56.424Z,20.95
2017-03-29T05:37:21.990Z,20.98
2017-03-29T05:37:47.551Z,20.95
2017-03-29T05:38:13.130Z,20.95
2017-03-29T05:38:38.690Z,20.95
2017-03-29T05:39:04.279Z,20.89
2017-03-29T05:39:29.840Z,20.83
2017-03-29T05:39:55.411Z,20.9
2017-03-29T05:40:20.989Z,20.81
2017-03-29T05:40:46.543Z,20.89
2017-03-29T05:41:12.129Z,20.9
2017-03-29T05:41:37.697Z,20.93
2017-03-29T05:42:03.269Z,20.93
2017-03-29T05:42:28.820Z,20.91
2017-03-29T05:42:54.455Z,20.93
2017-03-29T05:43:20.000Z,20.91
2017-03-29T05:43:45.566Z,20.9
2017-03-29T05:44:11.967Z,20.96
2017-03-29T05:44:38.338Z,20.91
2017-03-29T05:45:04.463Z,20.91
2017-03-29T05:45:30.080Z,20.9
2017-03-29T05:45:55.619Z,20.93
2017-03-29T05:46:21.183Z,20.9
2017-03-29T05:46:46.739Z,20.95
2017-03-29T05:47:12.296Z,20.89
2017-03-29T05:47:37.891Z,20.9
2017-03-29T05:48:03.447Z,20.93
2017-03-29T05:48:28.991Z,20.99
2017-03-29T05:48:54.546Z,20.93
2017-03-29T05:49:20.103Z,20.96
2017-03-29T05:49:45.664Z,20.87
2017-03-29T05:50:11.247Z,20.91
2017-03-29T05:50:36.853Z,20.89
2017-03-29T05:51:02.406Z,20.9
2017-03-29T05:51:27.948Z,20.95
2017-03-29T05:51:53.536Z,20.89
2017-03-29T05:52:19.110Z,20.9
2017-03-29T05:52:44.695Z,20.81
2017-03-29T05:53:10.272Z,20.87
2017-03-29T05:53:35.838Z,20.93
2017-03-29T05:54:01.394Z,20.86
2017-03-29T05:54:26.961Z,20.83
2017-03-29T05:54:52.505Z,20.91
2017-03-29T05:55:18.207Z,20.95
2017-03-29T05:55:43.761Z,20.83
2017-03-29T05:56:09.318Z,20.91
2017-03-29T05:56:34.879Z,20.89
2017-03-29T05:57:00.451Z,20.89
2017-03-29T05:57:26.009Z,20.93
2017-03-29T05:57:51.551Z,20.9
2017-03-29T05:58:17.131Z,20.93
2017-03-29T05:58:42.693Z,20.93
2017-03-29T05:59:08.258Z,20.9
2017-03-29T05:59:33.828Z,20.87
2017-03-29T05:59:59.388Z,20.9
2017-03-29T06:01:12.938Z,20.9
2017-03-29T06:01:38.587Z,20.9
2017-03-29T06:02:04.138Z,20.91
2017-03-29T06:02:29.686Z,20.89
2017-03-29T06:02:55.381Z,20.93
2017-03-29T06:03:43.205Z,20.95
2017-03-29T06:04:08.766Z,20.9
2017-03-29T06:04:34.321Z,20.86
2017-03-29T06:04:59.887Z,20.83
2017-03-29T06:05:25.530Z,20.89
2017-03-29T06:05:51.069Z,20.91
2017-03-29T06:06:16.616Z,20.91
2017-03-29T06:06:42.156Z,20.91
2017-03-29T06:07:07.850Z,20.86
2017-03-29T06:07:33.383Z,20.83
2017-03-29T06:07:58.938Z,20.91
2017-03-29T06:08:24.506Z,20.89
2017-03-29T06:08:50.184Z,20.87
2017-03-29T06:09:15.765Z,20.89
2017-03-29T06:09:41.304Z,20.89
2017-03-29T06:10:06.936Z,20.84
2017-03-29T06:10:32.492Z,20.89
2017-03-29T06:10:58.025Z,20.91
2017-03-29T06:11:24.202Z,20.89
2017-03-29T06:11:49.782Z,20.9
2017-03-29T06:12:15.311Z,20.89
2017-03-29T06:12:40.856Z,20.87
2017-03-29T06:13:06.438Z,20.8
2017-03-29T06:13:32.037Z,20.87
2017-03-29T06:13:57.571Z,20.87
2017-03-29T06:14:23.109Z,20.86
2017-03-29T06:14:48.654Z,20.86
2017-03-29T06:15:14.201Z,20.79
2017-03-29T06:15:39.828Z,20.87
2017-03-29T06:16:05.421Z,20.89
2017-03-29T06:16:30.956Z,20.81
2017-03-29T06:16:56.512Z,20.91
2017-03-29T06:17:22.135Z,20.84
2017-03-29T06:17:48.120Z,20.9
2017-03-29T06:18:13.669Z,20.89
2017-03-29T06:18:39.231Z,20.87
2017-03-29T06:19:04.878Z,20.93
2017-03-29T06:19:30.439Z,20.89
2017-03-29T06:19:55.988Z,20.91
2017-03-29T06:20:21.542Z,20.91
2017-03-29T06:20:47.087Z,20.91
2017-03-29T06:21:12.646Z,20.89
2017-03-29T06:21:38.206Z,20.84
2017-03-29T06:22:03.768Z,20.87
2017-03-29T06:22:29.306Z,20.93
2017-03-29T06:22:54.856Z,20.81
2017-03-29T06:23:20.396Z,20.89
2017-03-29T06:23:45.922Z,20.89
2017-03-29T06:24:11.482Z,20.87
2017-03-29T06:24:37.028Z,20.87
2017-03-29T06:25:02.583Z,20.89
2017-03-29T06:25:28.134Z,20.87
2017-03-29T06:25:53.691Z,20.89
2017-03-29T06:26:19.247Z,20.86
2017-03-29T06:26:44.796Z,20.89
2017-03-29T06:27:10.370Z,20.87
2017-03-29T06:27:35.923Z,20.89
2017-03-29T06:28:01.491Z,20.91
2017-03-29T06:28:27.045Z,20.87
2017-03-29T06:28:52.666Z,20.84
2017-03-29T06:29:18.238Z,20.84
2017-03-29T06:29:43.810Z,20.86
2017-03-29T06:30:09.371Z,20.89
2017-03-29T06:31:07.842Z,20.87
2017-03-29T06:31:33.589Z,20.9
2017-03-29T06:31:59.173Z,20.91
2017-03-29T06:32:24.734Z,20.89
2017-03-29T06:32:50.272Z,20.89
2017-03-29T06:33:15.836Z,20.87
2017-03-29T06:33:41.391Z,20.91
2017-03-29T06:34:06.979Z,20.87
2017-03-29T06:34:32.579Z,20.86
2017-03-29T06:34:58.143Z,20.89
2017-03-29T06:35:23.705Z,20.9
2017-03-29T06:35:49.264Z,20.83
2017-03-29T06:36:14.804Z,20.86
2017-03-29T06:36:40.360Z,20.84
2017-03-29T06:37:05.930Z,20.87
2017-03-29T06:37:31.471Z,20.89
2017-03-29T06:37:57.176Z,20.86
2017-03-29T06:38:22.732Z,20.83
2017-03-29T06:38:48.259Z,20.93
2017-03-29T06:39:14.000Z,20.89
2017-03-29T06:39:39.625Z,20.89
2017-03-29T06:40:05.186Z,20.9
2017-03-29T06:40:30.815Z,20.89
2017-03-29T06:40:56.393Z,20.87
2017-03-29T06:41:21.950Z,20.86
2017-03-29T06:41:47.507Z,20.87
2017-03-29T06:42:13.100Z,20.84
2017-03-29T06:42:38.675Z,20.87
2017-03-29T06:43:04.234Z,20.89
2017-03-29T06:43:29.818Z,20.84
2017-03-29T06:43:55.393Z,20.95
2017-03-29T06:44:20.973Z,20.81
2017-03-29T06:44:46.516Z,20.86
2017-03-29T06:45:12.063Z,20.9
2017-03-29T06:45:37.624Z,20.84
2017-03-29T06:46:03.356Z,20.9
2017-03-29T06:46:28.970Z,20.87
2017-03-29T06:46:54.533Z,20.87
2017-03-29T06:47:20.153Z,20.84
2017-03-29T06:47:45.720Z,20.89
2017-03-29T06:48:11.296Z,20.91
2017-03-29T06:48:36.875Z,20.9
2017-03-29T06:49:02.447Z,20.9
2017-03-29T06:49:28.001Z,20.87
2017-03-29T06:49:53.561Z,20.89
2017-03-29T06:50:19.128Z,20.89
2017-03-29T06:50:44.688Z,20.87
2017-03-29T06:51:10.275Z,20.9
2017-03-29T06:51:35.821Z,20.86
2017-03-29T06:52:01.388Z,20.91
2017-03-29T06:52:26.946Z,20.87
2017-03-29T06:52:52.502Z,20.86
2017-03-29T06:53:18.057Z,20.81
2017-03-29T06:53:43.746Z,20.9
2017-03-29T06:54:09.314Z,20.91
2017-03-29T06:54:34.870Z,20.87
2017-03-29T06:55:00.429Z,20.9
2017-03-29T06:55:25.995Z,20.89
2017-03-29T06:55:51.544Z,20.86
2017-03-29T06:56:17.086Z,20.91
2017-03-29T06:56:42.642Z,20.87
2017-03-29T06:57:08.262Z,20.91
2017-03-29T06:57:33.808Z,20.87
2017-03-29T06:57:59.367Z,20.91
2017-03-29T06:58:24.953Z,20.84
2017-03-29T06:58:50.522Z,20.89
2017-03-29T06:59:16.081Z,20.91
2017-03-29T06:59:41.644Z,20.9
2017-03-29T07:00:07.226Z,20.89
2017-03-29T07:00:32.840Z,20.86
2017-03-29T07:00:58.396Z,20.93
2017-03-29T07:01:23.953Z,20.86
2017-03-29T07:01:49.558Z,20.9
2017-03-29T07:02:15.282Z,20.91
2017-03-29T07:02:40.815Z,20.86
2017-03-29T07:03:06.375Z,20.89
2017-03-29T07:03:31.982Z,20.83
2017-03-29T07:03:57.612Z,20.9
2017-03-29T07:04:23.214Z,20.84
2017-03-29T07:04:48.799Z,20.87
2017-03-29T07:05:14.403Z,20.84
2017-03-29T07:05:39.930Z,20.9
2017-03-29T07:06:05.499Z,20.89
2017-03-29T07:06:31.045Z,20.87
2017-03-29T07:06:56.594Z,20.87
2017-03-29T07:07:22.152Z,20.86
2017-03-29T07:07:47.716Z,20.83
2017-03-29T07:08:13.264Z,20.87
2017-03-29T07:08:38.820Z,20.87
2017-03-29T07:09:04.419Z,20.89
2017-03-29T07:09:29.996Z,20.87
2017-03-29T07:09:55.577Z,20.9
2017-03-29T07:10:21.130Z,20.87
2017-03-29T07:10:46.702Z,20.84
2017-03-29T07:11:12.429Z,20.89
2017-03-29T07:11:37.993Z,20.86
2017-03-29T07:12:03.540Z,20.87
2017-03-29T07:12:29.153Z,20.9
2017-03-29T07:12:54.723Z,20.87
2017-03-29T07:13:20.302Z,20.89
2017-03-29T07:13:45.977Z,20.89
2017-03-29T07:14:11.541Z,20.87
2017-03-29T07:14:37.089Z,20.93
2017-03-29T07:15:02.659Z,20.86
2017-03-29T07:15:28.228Z,20.87
2017-03-29T07:15:53.798Z,20.89
2017-03-29T07:16:19.399Z,20.91
2017-03-29T07:16:44.949Z,20.87
2017-03-29T07:17:10.518Z,20.9
2017-03-29T07:17:36.108Z,20.86
2017-03-29T07:18:01.791Z,20.87
2017-03-29T07:18:27.337Z,20.91
2017-03-29T07:18:52.960Z,20.9
2017-03-29T07:19:18.517Z,20.89
2017-03-29T07:19:44.078Z,20.89
2017-03-29T07:20:09.759Z,20.9
2017-03-29T07:20:35.304Z,20.89
2017-03-29T07:21:00.849Z,20.93
2017-03-29T07:21:26.412Z,20.87
2017-03-29T07:21:51.968Z,20.89
2017-03-29T07:22:17.547Z,20.89
2017-03-29T07:22:43.109Z,20.89
2017-03-29T07:23:08.732Z,20.87
2017-03-29T07:23:34.297Z,20.89
2017-03-29T07:23:59.891Z,20.9
2017-03-29T07:24:25.454Z,20.89
2017-03-29T07:24:51.045Z,20.89
2017-03-29T07:25:16.631Z,20.87
2017-03-29T07:25:42.194Z,20.87
2017-03-29T07:26:07.746Z,20.86
2017-03-29T07:26:33.361Z,20.84
2017-03-29T07:26:58.909Z,20.84
2017-03-29T07:27:24.459Z,20.87
2017-03-29T07:27:50.058Z,20.84
2017-03-29T07:28:15.613Z,20.81
2017-03-29T07:28:41.168Z,20.84
2017-03-29T07:29:06.722Z,20.87
2017-03-29T07:29:32.295Z,20.84
2017-03-29T07:29:57.829Z,20.84
2017-03-29T07:30:23.479Z,20.86
2017-03-29T07:30:49.051Z,20.84
2017-03-29T07:31:14.602Z,20.89
2017-03-29T07:31:40.199Z,20.87
2017-03-29T07:32:05.754Z,20.87
2017-03-29T07:32:31.308Z,20.84
2017-03-29T07:32:56.879Z,20.81
2017-03-29T07:33:22.440Z,20.9
2017-03-29T07:33:48.068Z,20.9
2017-03-29T07:34:13.650Z,20.89
2017-03-29T07:34:39.203Z,20.87
2017-03-29T07:35:04.764Z,20.89
2017-03-29T07:35:30.326Z,20.89
2017-03-29T07:35:55.882Z,20.87
2017-03-29T07:36:21.452Z,20.9
2017-03-29T07:36:47.019Z,20.87
2017-03-29T07:37:12.592Z,20.91
2017-03-29T07:37:38.155Z,20.9
2017-03-29T07:38:03.718Z,20.89
2017-03-29T07:38:57.047Z,20.87
2017-03-29T07:39:50.052Z,20.9
2017-03-29T07:40:15.608Z,20.87
2017-03-29T07:40:41.210Z,20.9
2017-03-29T07:41:06.767Z,20.89
2017-03-29T07:41:32.329Z,20.87
2017-03-29T07:41:57.877Z,20.86
2017-03-29T07:42:23.440Z,20.91
2017-03-29T07:42:49.126Z,20.86
2017-03-29T07:43:14.689Z,20.93
2017-03-29T07:43:40.233Z,20.89
2017-03-29T07:44:05.787Z,20.87
2017-03-29T07:44:31.356Z,20.89
2017-03-29T07:44:56.993Z,20.86
2017-03-29T07:45:22.547Z,20.87
2017-03-29T07:45:48.101Z,20.89
2017-03-29T07:46:13.627Z,20.86
2017-03-29T07:46:39.328Z,20.89
2017-03-29T07:47:04.885Z,20.86
2017-03-29T07:47:30.426Z,20.9
2017-03-29T07:47:55.958Z,20.89
2017-03-29T07:48:21.502Z,20.87
2017-03-29T07:48:47.186Z,20.84
2017-03-29T07:49:12.856Z,20.9
2017-03-29T07:49:38.409Z,20.84
2017-03-29T07:50:03.978Z,20.87
2017-03-29T07:50:29.552Z,20.9
2017-03-29T07:50:55.252Z,20.87
2017-03-29T07:51:20.796Z,20.89
2017-03-29T07:51:46.354Z,20.87
2017-03-29T07:52:11.895Z,20.9
2017-03-29T07:52:37.442Z,20.87
2017-03-29T07:53:02.981Z,20.87
2017-03-29T07:53:28.583Z,20.9
2017-03-29T07:53:54.134Z,20.86
2017-03-29T07:54:19.743Z,20.9
2017-03-29T07:54:45.290Z,20.86
2017-03-29T07:55:10.860Z,20.87
2017-03-29T07:55:36.432Z,20.86
2017-03-29T07:56:02.013Z,20.87
2017-03-29T07:56:27.659Z,20.86
2017-03-29T07:56:53.250Z,20.89
2017-03-29T07:57:18.836Z,20.87
2017-03-29T07:57:44.407Z,20.86
2017-03-29T07:58:10.180Z,20.91
2017-03-29T07:58:35.773Z,20.87
2017-03-29T07:59:01.351Z,20.93
2017-03-29T07:59:26.923Z,20.87
2017-03-29T07:59:52.474Z,20.9
2017-03-29T08:00:18.023Z,20.9
2017-03-29T08:00:43.599Z,20.91
2017-03-29T08:01:09.268Z,20.91
2017-03-29T08:01:34.839Z,20.86
2017-03-29T08:02:00.456Z,20.84
2017-03-29T08:02:25.981Z,20.84
2017-03-29T08:02:51.551Z,20.87
2017-03-29T08:03:17.100Z,20.89
2017-03-29T08:03:42.666Z,20.89
2017-03-29T08:04:08.235Z,20.89
2017-03-29T08:04:33.806Z,20.9
2017-03-29T08:04:59.355Z,20.87
2017-03-29T08:05:24.947Z,20.89
2017-03-29T08:05:50.511Z,20.91
2017-03-29T08:06:16.065Z,20.79
2017-03-29T08:06:41.637Z,20.89
2017-03-29T08:07:07.281Z,20.89
2017-03-29T08:07:32.841Z,20.89
2017-03-29T08:07:58.398Z,20.84
2017-03-29T08:08:23.939Z,20.86
2017-03-29T08:08:49.559Z,20.91
2017-03-29T08:09:15.115Z,20.84
2017-03-29T08:09:40.689Z,20.93
2017-03-29T08:10:06.276Z,20.89
2017-03-29T08:10:31.858Z,20.87
2017-03-29T08:10:57.408Z,20.89
2017-03-29T08:11:22.959Z,20.87
2017-03-29T08:11:48.515Z,20.89
2017-03-29T08:12:14.201Z,20.84
2017-03-29T08:12:39.755Z,20.89
2017-03-29T08:13:05.480Z,20.87
2017-03-29T08:13:31.031Z,20.86
2017-03-29T08:13:56.583Z,20.87
2017-03-29T08:14:22.158Z,20.84
2017-03-29T08:14:47.698Z,20.84
2017-03-29T08:15:13.277Z,20.89
2017-03-29T08:15:38.846Z,20.9
2017-03-29T08:16:04.391Z,20.9
2017-03-29T08:16:29.993Z,20.89
2017-03-29T08:16:55.560Z,20.87
2017-03-29T08:17:21.153Z,20.91
2017-03-29T08:17:46.749Z,20.84
2017-03-29T08:18:12.287Z,20.89
2017-03-29T08:18:37.931Z,20.84
2017-03-29T08:19:03.557Z,20.86
2017-03-29T08:19:29.121Z,20.84
2017-03-29T08:19:54.667Z,20.84
2017-03-29T08:20:20.232Z,20.84
2017-03-29T08:20:45.788Z,20.8
2017-03-29T08:21:11.368Z,20.91
2017-03-29T08:21:36.913Z,20.86
2017-03-29T08:22:02.480Z,20.86
2017-03-29T08:22:28.061Z,20.84
2017-03-29T08:22:53.611Z,20.87
2017-03-29T08:23:19.182Z,20.86
2017-03-29T08:23:44.728Z,20.9
2017-03-29T08:24:10.285Z,20.86
2017-03-29T08:24:35.925Z,20.84
2017-03-29T08:25:34.386Z,20.84
2017-03-29T08:25:59.970Z,20.86
2017-03-29T08:26:25.636Z,20.86
2017-03-29T08:26:51.257Z,20.86
2017-03-29T08:27:16.790Z,20.84
2017-03-29T08:27:42.343Z,20.93
2017-03-29T08:28:07.912Z,20.89
2017-03-29T08:28:33.619Z,20.89
2017-03-29T08:28:59.178Z,20.83
2017-03-29T08:29:24.736Z,20.89
2017-03-29T08:29:50.286Z,20.84
2017-03-29T08:30:15.939Z,20.83
2017-03-29T08:30:41.476Z,20.87
2017-03-29T08:31:07.025Z,20.93
2017-03-29T08:31:32.592Z,20.8
2017-03-29T08:31:58.170Z,20.9
2017-03-29T08:32:23.737Z,20.84
2017-03-29T08:32:49.285Z,20.86
2017-03-29T08:33:14.856Z,20.9
2017-03-29T08:33:40.434Z,20.9
2017-03-29T08:34:05.978Z,20.84
2017-03-29T08:34:31.576Z,20.81
2017-03-29T08:34:57.126Z,20.87
2017-03-29T08:35:22.668Z,20.83
2017-03-29T08:35:48.337Z,20.87
2017-03-29T08:36:13.886Z,20.86